Airport ICAO


09:55 UTC

3°C

Overcast


An affordable passengers' Moving Map for your aircraft. Made for the iPad and the iPhone
More information here

LFLB Aix Les Bains


Chambery FRANCE   IFR CAT I


METAR LFLB 180930Z AUTO 02005KT 9999 BKN009 BKN021 OVC028 03/02 Q1017 BECMG BKN033 0h25min

TAF LFLB 180500Z 1806/1906 36005KT 9999 BKN014 TEMPO 1806/1810 3000 BR OVC005 BECMG 1810/1812 36010KT BKN033 PROB30 TEMPO 1900/1906 3000 BR 4h55min





NOTAMS

OPEN